Time;durP1;ratioP1;P1;durP2;ratioP2;P2;SDS_P1;SDS_P2;PMS_P1;PMS_P2;Temp;Humidity;BMP_temperature;BMP_pressure;BME280_temperature;BME280_humidity;BME280_pressure;Samples;Min_cycle;Max_cycle;Signal;HPM_P1;HPM_P2
2021/08/23 00:02:03;;;;;;;5.72;4.28;;;;;;;25.69;50.65;101576.56;4989122;28;20022;-83
2021/08/23 00:04:29;;;;;;;6.57;4.75;;;;;;;25.68;50.71;101582.28;4986967;28;20034;-83
2021/08/23 00:06:54;;;;;;;5.38;4.10;;;;;;;25.69;50.36;101593.03;5020185;28;20036;-82
2021/08/23 00:09:20;;;;;;;8.40;4.30;;;;;;;25.65;51.10;101583.53;4986325;28;20116;-83
2021/08/23 00:11:46;;;;;;;7.40;4.47;;;;;;;25.65;51.01;101586.28;4985959;28;20026;-82
2021/08/23 00:14:12;;;;;;;5.93;4.03;;;;;;;25.66;50.86;101579.72;4985094;28;20064;-84
2021/08/23 00:16:37;;;;;;;5.55;4.45;;;;;;;25.67;51.14;101589.66;5000793;28;20030;-84
2021/08/23 00:19:03;;;;;;;7.45;4.93;;;;;;;25.64;51.45;101584.59;5000335;28;20034;-84
2021/08/23 00:21:28;;;;;;;5.63;4.60;;;;;;;25.61;51.30;101584.16;5000702;28;20032;-84
2021/08/23 00:24:05;;;;;;;7.30;5.05;;;;;;;25.52;50.96;101580.75;4984500;28;20480;-85
2021/08/23 00:26:32;;;;;;;9.85;5.35;;;;;;;25.37;51.71;101574.59;5002079;28;20037;-84
2021/08/23 00:28:57;;;;;;;7.60;4.65;;;;;;;25.22;51.97;101574.75;5000210;28;20026;-84
2021/08/23 00:31:22;;;;;;;7.05;4.75;;;;;;;25.09;52.18;101572.00;4983834;28;20041;-84
2021/08/23 00:33:48;;;;;;;7.00;4.90;;;;;;;24.96;52.32;101569.19;4983925;28;20026;-83
2021/08/23 00:36:13;;;;;;;7.38;5.45;;;;;;;24.85;52.58;101573.34;4999433;28;20506;-83
2021/08/23 00:38:39;;;;;;;8.27;5.45;;;;;;;24.71;52.47;101571.56;4982586;28;20026;-84
2021/08/23 00:41:04;;;;;;;11.13;5.78;;;;;;;24.65;53.02;101586.09;5015499;28;20026;-82
2021/08/23 00:43:31;;;;;;;9.73;6.18;;;;;;;24.57;53.33;101578.03;4983678;28;20037;-82
2021/08/23 00:45:57;;;;;;;9.18;6.43;;;;;;;24.53;52.80;101574.03;4999741;28;20061;-82
2021/08/23 00:48:23;;;;;;;11.02;6.82;;;;;;;24.49;52.97;101572.72;4983409;28;20049;-82
2021/08/23 00:50:49;;;;;;;11.13;6.90;;;;;;;24.51;53.53;101581.56;4999076;28;20034;-82
2021/08/23 00:53:15;;;;;;;9.85;6.70;;;;;;;24.53;53.34;101579.50;4999415;28;20044;-82
2021/08/23 00:55:40;;;;;;;13.10;7.13;;;;;;;24.53;53.72;101581.38;4983327;28;20044;-82
2021/08/23 00:58:05;;;;;;;10.15;6.95;;;;;;;24.52;53.54;101583.28;4998714;28;20040;-82
2021/08/23 01:00:33;;;;;;;12.85;7.88;;;;;;;24.52;53.68;101577.78;4982607;28;20033;-82
2021/08/23 01:03:13;;;;;;;9.93;6.97;;;;;;;24.50;53.67;101574.44;5015359;28;20129;-82
2021/08/23 01:05:39;;;;;;;11.45;7.35;;;;;;;24.56;53.14;101581.00;4998979;28;20026;-82
2021/08/23 01:08:12;;;;;;;11.45;7.15;;;;;;;24.60;53.70;101579.53;4982635;28;20041;-83
2021/08/23 01:10:42;;;;;;;14.52;9.48;;;;;;;24.64;53.41;101589.03;4998686;28;20033;-83
2021/08/23 01:13:08;;;;;;;17.42;8.32;;;;;;;24.62;53.49;101574.72;4998306;28;20022;-82
2021/08/23 01:15:35;;;;;;;9.77;7.53;;;;;;;24.69;53.67;101584.66;4999237;28;20484;-82
2021/08/23 01:18:01;;;;;;;15.48;9.02;;;;;;;24.70;53.30;101586.34;4998504;28;20022;-82
2021/08/23 01:20:26;;;;;;;13.88;8.23;;;;;;;24.76;53.77;101587.44;4998440;28;20037;-82
2021/08/23 01:22:53;;;;;;;13.10;7.28;;;;;;;24.76;53.33;101584.69;4982088;28;20507;-81
2021/08/23 01:25:23;;;;;;;11.43;8.60;;;;;;;24.79;53.51;101590.63;4998036;28;20452;-81
2021/08/23 01:28:01;;;;;;;12.95;8.57;;;;;;;24.82;54.08;101595.69;4998278;28;20017;-81
2021/08/23 01:30:31;;;;;;;13.07;8.35;;;;;;;24.82;53.79;101582.00;4997758;28;20032;-81
2021/08/23 01:32:56;;;;;;;13.90;8.35;;;;;;;24.88;53.42;101594.88;4998240;28;20103;-81
2021/08/23 01:35:22;;;;;;;12.98;8.85;;;;;;;24.92;53.39;101595.34;4981621;28;20026;-81
2021/08/23 01:37:48;;;;;;;11.43;9.18;;;;;;;24.90;53.27;101581.81;4998078;28;20025;-81
2021/08/23 01:40:14;;;;;;;11.45;8.32;;;;;;;24.96;53.26;101591.13;4998133;28;20034;-82
2021/08/23 01:42:39;;;;;;;13.00;8.60;;;;;;;24.99;53.66;101589.84;4981267;28;20018;-82
2021/08/23 01:45:05;;;;;;;12.15;7.78;;;;;;;24.99;53.46;101595.34;4981767;28;20029;-83
2021/08/23 01:47:30;;;;;;;10.75;8.10;;;;;;;24.99;53.30;101589.84;4982052;28;20026;-81
2021/08/23 01:49:56;;;;;;;11.15;7.80;;;;;;;25.01;53.21;101591.38;4998383;28;20399;-82
2021/08/23 01:52:21;;;;;;;12.27;7.63;;;;;;;25.07;53.34;101592.44;4998029;28;20061;-82
2021/08/23 01:54:46;;;;;;;13.50;7.45;;;;;;;25.08;53.09;101594.13;4997181;28;20061;-82
2021/08/23 01:57:17;;;;;;;12.25;7.93;;;;;;;25.07;52.74;101589.69;4981000;28;20058;-82
2021/08/23 01:59:44;;;;;;;12.60;7.88;;;;;;;25.11;53.60;101596.44;4997544;28;20029;-82
2021/08/23 02:02:09;;;;;;;14.70;7.72;;;;;;;25.09;53.50;101596.66;4997336;28;20018;-81
2021/08/23 02:04:34;;;;;;;14.07;8.00;;;;;;;25.09;53.29;101593.06;4981809;28;20088;-82
2021/08/23 02:07:00;;;;;;;13.05;7.30;;;;;;;25.11;53.35;101599.19;4998388;28;20095;-81
2021/08/23 02:09:25;;;;;;;11.88;7.32;;;;;;;25.10;53.24;101600.25;4998262;28;20029;-81
2021/08/23 02:11:51;;;;;;;10.00;7.18;;;;;;;25.09;53.37;101601.31;4997387;28;20034;-81
2021/08/23 02:14:16;;;;;;;9.95;6.93;;;;;;;25.13;53.39;101608.06;4997913;28;20062;-84
2021/08/23 02:16:42;;;;;;;9.43;7.45;;;;;;;25.16;53.17;101611.25;4981037;28;20061;-82
2021/08/23 02:19:07;;;;;;;8.95;6.50;;;;;;;25.16;53.54;101610.38;4998072;28;20026;-81
2021/08/23 02:21:46;;;;;;;11.52;6.88;;;;;;;25.18;53.24;101611.06;4997546;28;20033;-81
2021/08/23 02:24:12;;;;;;;10.40;6.95;;;;;;;25.15;53.36;101608.72;5014155;28;20124;-82
2021/08/23 02:26:37;;;;;;;14.18;7.50;;;;;;;25.19;53.46;101612.72;4981591;28;20111;-81
2021/08/23 02:29:03;;;;;;;17.65;7.80;;;;;;;25.19;53.17;101618.22;4997725;28;20089;-82
2021/08/23 02:31:29;;;;;;;8.63;6.53;;;;;;;25.18;53.30;101613.78;4998228;28;20472;-82
2021/08/23 02:33:54;;;;;;;11.75;6.45;;;;;;;25.18;53.07;101616.53;4982755;28;20080;-82
2021/08/23 02:36:22;;;;;;;8.43;6.70;;;;;;;25.20;53.26;101625.41;4998406;28;20093;-81
2021/08/23 02:38:49;;;;;;;9.82;6.60;;;;;;;25.20;53.33;101626.25;4982260;28;20029;-83
2021/08/23 02:41:15;;;;;;;10.05;6.70;;;;;;;25.19;53.23;101623.69;4998409;28;20025;-81
2021/08/23 02:43:40;;;;;;;8.73;6.85;;;;;;;25.21;53.32;101638.88;4997455;28;20084;-81
2021/08/23 02:46:06;;;;;;;11.75;6.80;;;;;;;25.22;53.42;101635.09;4997809;28;20068;-82
2021/08/23 02:48:31;;;;;;;12.85;7.32;;;;;;;25.23;53.42;101635.97;4981884;28;20034;-81
2021/08/23 02:50:57;;;;;;;11.75;6.97;;;;;;;25.22;53.13;101635.09;4997965;28;20033;-81
2021/08/23 02:53:22;;;;;;;9.82;6.57;;;;;;;25.22;53.43;101634.25;4983044;28;20034;-82
2021/08/23 02:55:47;;;;;;;9.77;7.05;;;;;;;25.26;52.89;101643.78;5001774;28;20401;-81
2021/08/23 02:58:13;;;;;;;12.02;7.40;;;;;;;25.25;53.44;101642.06;4985573;28;20030;-81
2021/08/23 03:00:38;;;;;;;10.48;7.28;;;;;;;25.27;52.91;101645.44;4985614;28;20112;-82
2021/08/23 03:03:06;;;;;;;10.40;7.07;;;;;;;25.31;53.67;101647.59;5001763;28;20079;-85
2021/08/23 03:05:31;;;;;;;14.30;7.20;;;;;;;25.29;53.06;101635.13;4986005;28;20032;-81
2021/08/23 03:07:57;;;;;;;11.45;6.95;;;;;;;25.30;53.18;101639.56;4985897;28;20034;-81
2021/08/23 03:10:22;;;;;;;9.30;5.90;;;;;;;25.32;53.27;101651.19;4985750;28;20030;-84
2021/08/23 03:12:47;;;;;;;9.77;6.68;;;;;;;25.28;53.42;101645.25;4985751;28;20476;-82
2021/08/23 03:15:13;;;;;;;11.95;7.80;;;;;;;25.31;52.78;101644.00;4985289;28;20107;-81
2021/08/23 03:17:38;;;;;;;11.60;6.78;;;;;;;25.32;53.37;101642.97;5001981;28;20484;-81
2021/08/23 03:20:04;;;;;;;10.63;6.60;;;;;;;25.30;53.41;101653.28;5001144;28;20061;-81
2021/08/23 03:22:30;;;;;;;11.10;7.18;;;;;;;25.25;53.74;101650.31;5001407;28;20022;-81
2021/08/23 03:24:55;;;;;;;10.00;7.43;;;;;;;25.27;53.24;101654.53;5001177;28;20062;-83
2021/08/23 03:27:21;;;;;;;7.35;6.05;;;;;;;25.30;53.37;101654.13;4985196;28;20128;-82
2021/08/23 03:29:51;;;;;;;8.63;6.20;;;;;;;25.27;53.50;101648.19;5017564;28;20443;-82
2021/08/23 03:32:17;;;;;;;8.38;5.93;;;;;;;25.29;53.60;101652.41;5001078;28;20030;-83
2021/08/23 03:34:43;;;;;;;13.63;7.32;;;;;;;25.30;52.78;101658.75;5001181;28;20033;-82
2021/08/23 03:37:08;;;;;;;9.25;6.50;;;;;;;25.28;53.45;101649.91;5002349;28;20021;-81
2021/08/23 03:39:34;;;;;;;8.52;6.97;;;;;;;25.34;53.54;101654.56;4986342;28;20053;-82
2021/08/23 03:42:00;;;;;;;9.23;6.40;;;;;;;25.34;53.73;101668.28;5001044;28;20030;-81
2021/08/23 03:44:25;;;;;;;9.00;6.10;;;;;;;25.32;53.60;101656.69;5001840;28;20439;-81
2021/08/23 03:46:56;;;;;;;8.50;5.80;;;;;;;25.32;53.33;101662.97;5001172;28;20056;-82
2021/08/23 03:49:21;;;;;;;11.02;6.70;;;;;;;25.20;53.43;101652.81;4977413;28;20130;-83
2021/08/23 03:51:47;;;;;;;10.73;6.72;;;;;;;25.30;53.05;101669.72;5002360;28;20081;-81
2021/08/23 03:54:13;;;;;;;10.00;6.43;;;;;;;25.32;53.30;101673.13;4985288;28;20030;-83
2021/08/23 03:56:39;;;;;;;10.07;6.07;;;;;;;25.20;53.72;101655.56;4999963;28;20065;-83
2021/08/23 03:59:08;;;;;;;7.43;5.90;;;;;;;25.21;53.50;101665.50;5000479;28;20062;-83
2021/08/23 04:01:42;;;;;;;6.85;5.57;;;;;;;25.09;53.45;101646.03;5000093;28;20022;-82
2021/08/23 04:04:08;;;;;;;9.90;6.78;;;;;;;25.18;53.55;101671.38;5000034;28;20033;-82
2021/08/23 04:06:33;;;;;;;10.00;7.10;;;;;;;25.24;53.42;101679.63;5000600;28;20033;-82
2021/08/23 04:08:59;;;;;;;12.43;6.75;;;;;;;25.25;53.58;101689.56;4984585;28;20034;-82
2021/08/23 04:11:24;;;;;;;11.13;6.20;;;;;;;25.20;53.04;101685.72;4985827;28;20112;-82
2021/08/23 04:13:50;;;;;;;12.55;7.45;;;;;;;25.18;53.83;101685.09;4985457;28;20084;-82
2021/08/23 04:16:18;;;;;;;10.75;7.13;;;;;;;25.03;53.80;101662.44;5002152;28;20140;-82
2021/08/23 04:18:53;;;;;;;10.55;7.20;;;;;;;25.15;53.53;101691.00;4985763;28;20568;-82
2021/08/23 04:21:21;;;;;;;12.70;7.53;;;;;;;25.11;54.19;101697.91;4985564;28;20029;-83
2021/08/23 04:23:46;;;;;;;13.88;7.70;;;;;;;25.03;53.67;101681.63;4985332;28;20037;-83
2021/08/23 04:26:12;;;;;;;16.85;8.40;;;;;;;24.91;54.31;101670.38;4984527;28;20037;-81
2021/08/23 04:28:51;;;;;;;15.10;8.80;;;;;;;25.06;54.01;101708.66;4983898;28;20037;-82
2021/08/23 04:31:16;;;;;;;10.80;7.07;;;;;;;25.13;54.16;101712.25;5000672;28;20033;-81
2021/08/23 04:33:45;;;;;;;9.40;6.80;;;;;;;24.96;54.15;101694.47;4999759;28;20030;-81
2021/08/23 04:36:11;;;;;;;8.20;6.53;;;;;;;25.10;54.30;101724.50;4984773;28;20480;-83
2021/08/23 04:38:36;;;;;;;11.68;7.18;;;;;;;25.08;54.01;101723.84;5016612;28;20076;-82
2021/08/23 04:41:01;;;;;;;12.50;7.00;;;;;;;25.01;54.04;101713.91;4983097;28;20112;-81
2021/08/23 04:43:27;;;;;;;12.43;7.13;;;;;;;25.13;54.07;101735.06;4983075;28;20061;-81
2021/08/23 04:45:52;;;;;;;13.00;7.75;;;;;;;25.04;53.79;101729.97;4999458;28;20026;-81
2021/08/23 04:48:17;;;;;;;13.55;7.80;;;;;;;25.08;53.97;101736.72;4999331;28;20083;-82
2021/08/23 04:50:43;;;;;;;11.20;7.00;;;;;;;25.10;53.96;101745.59;4983506;28;20103;-81
2021/08/23 04:53:08;;;;;;;14.15;8.27;;;;;;;25.10;54.00;101748.34;4999925;28;20058;-81
2021/08/23 04:55:37;;;;;;;14.25;7.45;;;;;;;25.08;53.88;101747.69;4984076;28;20087;-82
2021/08/23 04:58:02;;;;;;;12.98;7.93;;;;;;;25.11;54.03;101758.25;5000553;28;20487;-82
2021/08/23 05:00:28;;;;;;;12.45;7.38;;;;;;;25.12;54.13;101763.56;5000080;28;20041;-83
2021/08/23 05:02:53;;;;;;;15.85;8.55;;;;;;;25.13;54.52;101761.63;4983596;28;20049;-81
2021/08/23 05:05:22;;;;;;;13.80;8.00;;;;;;;25.04;54.01;101751.91;4999332;28;20403;-81
2021/08/23 05:07:50;;;;;;;11.85;7.07;;;;;;;25.17;54.10;101768.41;4999641;28;20022;-83
2021/08/23 05:10:16;;;;;;;11.20;7.72;;;;;;;25.13;53.94;101772.59;4999717;28;20026;-83
2021/08/23 05:12:44;;;;;;;18.38;9.75;;;;;;;24.95;53.77;101742.13;4984054;28;20033;-81
2021/08/23 05:15:13;;;;;;;16.73;9.38;;;;;;;25.05;53.83;101764.53;5000923;28;20030;-81
2021/08/23 05:17:42;;;;;;;17.75;9.50;;;;;;;25.14;53.99;101777.91;4999922;28;20030;-81
2021/08/23 05:20:11;;;;;;;16.52;10.45;;;;;;;25.17;53.78;101782.13;5016385;28;20522;-81
2021/08/23 05:22:38;;;;;;;15.23;9.40;;;;;;;25.14;54.04;101775.16;4984770;28;20029;-81
2021/08/23 05:25:04;;;;;;;17.10;9.70;;;;;;;25.26;53.35;101791.91;5003433;28;20028;-82
2021/08/23 05:27:29;;;;;;;15.40;8.85;;;;;;;25.21;53.42;101780.69;4989223;28;20030;-82
2021/08/23 05:29:55;;;;;;;16.30;8.63;;;;;;;25.31;54.03;101803.13;5005710;28;20196;-82
2021/08/23 05:32:20;;;;;;;13.90;8.32;;;;;;;25.32;53.49;101807.56;5021297;28;20026;-83
2021/08/23 05:34:46;;;;;;;15.10;8.80;;;;;;;25.30;53.61;101807.75;5005432;28;20120;-82
2021/08/23 05:37:12;;;;;;;12.68;7.68;;;;;;;25.26;53.61;101805.63;5021614;28;20472;-84
2021/08/23 05:39:37;;;;;;;12.85;8.07;;;;;;;25.33;53.60;101812.84;5004653;28;20045;-83
2021/08/23 05:42:03;;;;;;;10.30;7.13;;;;;;;25.35;53.58;101815.34;5022654;28;20021;-84
2021/08/23 05:44:29;;;;;;;13.15;7.60;;;;;;;25.38;53.29;101824.03;5023294;28;20029;-81
2021/08/23 05:46:56;;;;;;;11.50;6.68;;;;;;;25.38;53.46;101826.78;5023313;28;20105;-82
2021/08/23 05:49:25;;;;;;;9.32;6.07;;;;;;;25.44;53.03;101831.47;4996460;28;20048;-84
2021/08/23 05:51:56;;;;;;;10.23;6.72;;;;;;;25.46;53.42;101840.34;5007048;28;20097;-83
2021/08/23 05:54:22;;;;;;;10.93;6.97;;;;;;;25.43;52.87;101828.94;5006127;28;20041;-84
2021/08/23 05:56:47;;;;;;;12.43;6.85;;;;;;;25.46;52.86;101836.78;5005290;28;20060;-84
2021/08/23 05:59:13;;;;;;;10.02;6.68;;;;;;;25.39;52.79;101817.53;5021633;28;20026;-83
2021/08/23 06:01:38;;;;;;;12.57;6.57;;;;;;;25.51;52.89;101836.19;5020974;28;20018;-82
2021/08/23 06:04:03;;;;;;;10.57;7.10;;;;;;;25.51;52.88;101848.03;5020688;28;20033;-83
2021/08/23 06:06:29;;;;;;;10.05;6.57;;;;;;;25.53;52.55;101851.41;5021318;28;20030;-83
2021/08/23 06:08:54;;;;;;;9.57;6.82;;;;;;;25.51;52.90;101853.50;5021685;28;20036;-83
2021/08/23 06:11:20;;;;;;;10.07;6.50;;;;;;;25.50;52.75;101857.28;5004930;28;20480;-82
2021/08/23 06:13:48;;;;;;;9.77;6.75;;;;;;;25.44;52.42;101855.31;5005766;28;20037;-82
2021/08/23 06:16:18;;;;;;;11.00;7.30;;;;;;;25.46;52.37;101861.47;5014520;28;20036;-84
2021/08/23 06:18:46;;;;;;;12.52;8.20;;;;;;;25.44;52.38;101858.91;4994116;28;20029;-83
2021/08/23 06:21:12;;;;;;;11.38;7.13;;;;;;;25.38;52.21;101856.13;4986533;28;20022;-82
2021/08/23 06:23:44;;;;;;;14.60;7.30;;;;;;;25.31;52.16;101849.75;5001518;28;20037;-82
2021/08/23 06:26:09;;;;;;;11.27;7.60;;;;;;;25.34;52.74;101868.56;5002281;28;20107;-81
2021/08/23 06:28:44;;;;;;;12.27;7.75;;;;;;;25.27;52.85;101846.56;5006652;28;20026;-83
2021/08/23 06:34:55;;;;;;;12.63;7.82;;;;;;;25.30;52.70;101861.75;4981236;28;20019;-82
2021/08/23 06:37:20;;;;;;;14.20;8.93;;;;;;;25.24;52.72;101851.59;4981474;28;20042;-81
2021/08/23 06:39:46;;;;;;;15.13;8.88;;;;;;;25.48;53.15;101872.25;4981105;28;20045;-82
2021/08/23 06:42:26;;;;;;;12.38;7.78;;;;;;;25.45;52.56;101884.47;4982324;28;20034;-83
2021/08/23 06:44:52;;;;;;;13.38;8.88;;;;;;;25.57;52.45;101888.38;4966074;28;20537;-82
2021/08/23 06:47:17;;;;;;;13.88;8.70;;;;;;;25.58;52.47;101876.34;4965476;28;20035;-82
2021/08/23 06:49:43;;;;;;;15.45;10.32;;;;;;;25.67;52.19;101886.09;4965449;28;20125;-85
2021/08/23 06:52:09;;;;;;;13.02;8.82;;;;;;;25.81;52.38;101887.88;4966018;28;20078;-82
2021/08/23 06:54:34;;;;;;;13.77;8.77;;;;;;;26.04;51.81;101891.19;4966624;28;20039;-82
2021/08/23 06:57:01;;;;;;;12.95;8.75;;;;;;;26.29;51.70;101893.41;4966164;28;20501;-82
2021/08/23 06:59:28;;;;;;;15.35;9.82;;;;;;;26.50;51.50;101894.09;4965713;28;20150;-82
2021/08/23 07:01:54;;;;;;;17.40;9.35;;;;;;;26.57;51.49;101905.13;4978530;28;20023;-83
2021/08/23 07:04:19;;;;;;;16.00;10.50;;;;;;;26.50;51.56;101904.25;4980080;28;20058;-84
2021/08/23 07:06:52;;;;;;;19.17;11.35;;;;;;;26.50;51.27;101904.25;4996258;28;20062;-84
2021/08/23 07:09:29;;;;;;;18.30;11.35;;;;;;;26.51;51.39;101912.28;4978551;28;20053;-84
2021/08/23 07:12:04;;;;;;;18.55;11.48;;;;;;;26.47;51.50;101912.91;5016561;28;20038;-84
2021/08/23 07:14:43;;;;;;;19.52;10.40;;;;;;;26.32;51.25;101898.50;4993848;28;20026;-84
2021/08/23 07:17:12;;;;;;;17.75;10.55;;;;;;;26.24;52.07;101888.53;5009957;28;20026;-83
2021/08/23 07:19:56;;;;;;;19.88;10.98;;;;;;;26.40;52.27;101912.03;5009049;28;20032;-85
2021/08/23 07:22:38;;;;;;;19.63;11.65;;;;;;;26.38;51.86;101904.00;5009155;28;20026;-84
2021/08/23 07:25:05;;;;;;;15.85;10.48;;;;;;;26.37;51.21;101890.47;5011661;28;20052;-84
2021/08/23 07:27:32;;;;;;;16.45;10.23;;;;;;;26.50;51.21;101904.25;4993142;28;20407;-82
2021/08/23 07:30:10;;;;;;;14.75;8.85;;;;;;;26.38;51.26;101883.94;5025368;28;20028;-82
2021/08/23 07:32:53;;;;;;;15.45;9.35;;;;;;;26.43;51.47;101897.88;5008003;28;20025;-83
2021/08/23 07:35:29;;;;;;;15.23;9.82;;;;;;;26.38;51.75;101905.91;5007331;28;20116;-84
2021/08/23 07:37:54;;;;;;;16.23;9.45;;;;;;;26.30;51.40;101909.66;5006295;28;20069;-82
2021/08/23 07:40:20;;;;;;;15.00;9.70;;;;;;;26.30;51.91;101919.84;4989121;28;20448;-83
2021/08/23 07:42:45;;;;;;;18.40;11.63;;;;;;;26.31;51.90;101927.88;5006010;28;20033;-83
2021/08/23 07:45:13;;;;;;;21.95;12.02;;;;;;;26.32;51.70;101928.72;4990020;28;20033;-83
2021/08/23 07:47:41;;;;;;;20.30;11.32;;;;;;;26.25;51.68;101933.31;4988966;28;20053;-83
2021/08/23 07:50:13;;;;;;;18.65;10.60;;;;;;;26.18;52.19;101935.22;4990480;28;20034;-83
2021/08/23 07:53:00;;;;;;;19.90;10.90;;;;;;;26.10;51.90;101935.34;4989376;28;20061;-82
2021/08/23 07:55:26;;;;;;;21.25;11.63;;;;;;;25.89;51.52;101917.91;5005190;28;20142;-81
2021/08/23 07:57:52;;;;;;;23.83;11.82;;;;;;;25.95;51.92;101933.59;5004799;28;20046;-83
2021/08/23 08:00:20;;;;;;;22.90;11.73;;;;;;;25.86;52.67;101931.19;4988131;28;20036;-82
2021/08/23 08:02:46;;;;;;;18.75;11.32;;;;;;;25.86;52.19;101940.28;5004323;28;20017;-83
2021/08/23 08:05:17;;;;;;;19.98;11.30;;;;;;;25.80;51.87;101942.97;5004191;28;20029;-82
2021/08/23 08:07:47;;;;;;;18.02;11.05;;;;;;;25.80;52.18;101941.09;5004165;28;20381;-84
2021/08/23 08:10:15;;;;;;;20.17;11.50;;;;;;;25.72;51.97;101916.53;4988244;28;20030;-82
2021/08/23 08:12:46;;;;;;;18.15;10.98;;;;;;;25.93;51.77;101952.16;5004726;28;20026;-82
2021/08/23 08:15:12;;;;;;;16.27;9.73;;;;;;;26.03;51.86;101960.03;5005732;28;20049;-83
2021/08/23 08:17:38;;;;;;;17.30;9.23;;;;;;;25.96;51.65;101951.75;5005733;28;20472;-82
2021/08/23 08:20:06;;;;;;;16.15;10.32;;;;;;;26.03;52.42;101955.38;5005915;28;20076;-83
2021/08/23 08:22:32;;;;;;;16.48;9.63;;;;;;;26.20;51.54;101969.66;5005367;28;20498;-83
2021/08/23 08:24:58;;;;;;;18.73;9.43;;;;;;;26.21;51.50;101954.03;4988715;28;20116;-85
2021/08/23 08:27:23;;;;;;;20.70;10.77;;;;;;;26.36;51.08;101957.47;4987719;28;20061;-85
2021/08/23 08:29:48;;;;;;;19.30;10.30;;;;;;;26.61;51.29;101966.84;5004173;28;20109;-85
2021/08/23 08:32:14;;;;;;;17.20;9.27;;;;;;;26.78;51.41;101973.72;4987896;28;20099;-83
2021/08/23 08:34:39;;;;;;;14.60;9.05;;;;;;;26.96;50.60;101982.25;5004385;28;20091;-82
2021/08/23 08:37:05;;;;;;;16.52;9.20;;;;;;;27.11;50.54;101980.13;4987952;28;20028;-84
2021/08/23 08:39:30;;;;;;;16.55;8.30;;;;;;;27.21;50.78;101981.63;4988251;28;20092;-84
2021/08/23 08:41:56;;;;;;;14.52;9.07;;;;;;;27.28;50.39;101979.72;4987165;28;20499;-84
2021/08/23 08:44:22;;;;;;;15.18;8.82;;;;;;;27.26;50.42;101988.19;5003506;28;20026;-84
2021/08/23 08:46:48;;;;;;;13.20;8.88;;;;;;;27.23;50.67;101985.84;4986853;28;20033;-84
2021/08/23 08:49:13;;;;;;;16.30;8.93;;;;;;;27.18;50.58;101975.50;5003283;28;20029;-85
2021/08/23 08:51:41;;;;;;;13.65;9.20;;;;;;;27.16;50.41;101987.78;4985774;28;20056;-84
2021/08/23 08:54:06;;;;;;;15.32;9.10;;;;;;;27.03;50.24;101983.09;5003370;28;20085;-84
2021/08/23 08:56:33;;;;;;;18.58;10.52;;;;;;;26.96;50.98;101998.75;4987701;28;20458;-84
2021/08/23 08:58:59;;;;;;;17.35;9.65;;;;;;;26.86;50.53;101994.66;5009838;28;20026;-83
2021/08/23 09:01:25;;;;;;;19.40;11.13;;;;;;;26.80;51.49;102001.03;5016740;28;20085;-82
2021/08/23 09:03:50;;;;;;;16.58;9.50;;;;;;;26.76;51.13;101999.69;5046140;28;20018;-86
2021/08/23 09:06:16;;;;;;;17.00;8.75;;;;;;;26.67;51.11;101995.44;5004927;28;20049;-85
2021/08/23 09:08:44;;;;;;;15.82;9.32;;;;;;;26.74;50.68;101999.91;5037411;28;20029;-83
2021/08/23 09:11:14;;;;;;;15.98;9.13;;;;;;;26.81;50.83;102009.06;5037565;28;20037;-82
2021/08/23 09:13:41;;;;;;;15.88;7.75;;;;;;;26.74;50.69;102005.41;5036716;28;20427;-83
2021/08/23 09:16:07;;;;;;;15.80;8.32;;;;;;;26.77;50.59;102009.66;5004120;28;20029;-84
2021/08/23 09:18:33;;;;;;;14.98;8.25;;;;;;;26.79;50.57;102013.91;5023479;28;20085;-84
2021/08/23 09:21:10;;;;;;;12.75;7.72;;;;;;;26.87;50.40;102013.72;5039664;28;20053;-85
2021/08/23 09:23:39;;;;;;;13.18;7.28;;;;;;;26.94;50.08;102011.81;5023599;28;20041;-86
2021/08/23 09:26:13;;;;;;;12.88;7.38;;;;;;;26.99;50.72;102020.34;5039784;28;20028;-84
2021/08/23 09:28:40;;;;;;;13.93;7.80;;;;;;;27.02;50.22;102017.16;5023254;28;20446;-85
2021/08/23 09:31:10;;;;;;;11.77;7.50;;;;;;;27.13;49.84;102027.56;5022898;28;20037;-85
2021/08/23 09:33:44;;;;;;;10.57;6.78;;;;;;;27.28;49.40;102026.50;5056769;28;20025;-83
2021/08/23 09:36:10;;;;;;;11.02;7.15;;;;;;;27.39;49.31;102017.63;5021382;28;20025;-83
2021/08/23 09:38:36;;;;;;;10.38;6.45;;;;;;;27.45;49.38;102030.56;5038072;28;20025;-83
2021/08/23 09:41:04;;;;;;;10.68;6.78;;;;;;;27.36;49.82;102031.81;5005156;28;20414;-83
2021/08/23 09:43:31;;;;;;;10.60;6.07;;;;;;;27.30;49.74;102027.16;5021365;28;20025;-85
2021/08/23 09:46:02;;;;;;;10.80;6.10;;;;;;;27.33;49.56;102033.06;5021982;28;20049;-83
2021/08/23 09:48:28;;;;;;;10.48;6.07;;;;;;;27.37;49.73;102044.50;5054045;28;20049;-83
2021/08/23 09:51:22;;;;;;;8.00;5.32;;;;;;;27.40;49.69;102028.44;5023382;28;20036;-83
2021/08/23 09:54:07;;;;;;;9.73;5.95;;;;;;;27.29;49.54;102008.94;5023287;28;20025;-85
2021/08/23 09:56:34;;;;;;;8.98;5.75;;;;;;;27.49;49.36;102048.38;5022525;28;20037;-82
2021/08/23 09:59:00;;;;;;;9.93;5.80;;;;;;;27.54;49.17;102026.56;5054551;28;20021;-82
2021/08/23 10:01:26;;;;;;;11.05;6.28;;;;;;;27.96;48.51;102034.38;5021742;28;20021;-82
2021/08/23 10:04:11;;;;;;;14.23;6.47;;;;;;;27.94;48.89;102031.00;5021539;28;20041;-84
2021/08/23 10:06:39;;;;;;;8.35;5.75;;;;;;;28.01;48.56;102040.09;5023603;28;20032;-82
2021/08/23 10:09:09;;;;;;;10.80;5.38;;;;;;;28.16;48.46;102045.41;5037343;28;20048;-83
2021/08/23 10:11:36;;;;;;;16.88;6.47;;;;;;;28.18;47.79;102029.50;5021159;28;20033;-82
2021/08/23 10:14:05;;;;;;;10.90;5.35;;;;;;;28.27;47.64;102034.56;5020526;28;20057;-86
2021/08/23 10:16:32;;;;;;;9.77;5.60;;;;;;;28.32;47.38;102044.94;5019531;28;20025;-83
2021/08/23 10:18:58;;;;;;;7.30;5.90;;;;;;;28.33;48.18;102046.63;5052371;28;20029;-84
2021/08/23 10:21:24;;;;;;;8.57;5.60;;;;;;;28.31;48.11;102052.34;5020200;28;20372;-83
2021/08/23 10:23:50;;;;;;;9.20;5.60;;;;;;;28.23;47.63;102058.09;5022246;28;20017;-82
2021/08/23 10:26:16;;;;;;;9.60;5.47;;;;;;;28.11;47.65;102053.47;5055804;28;20040;-82
2021/08/23 10:28:42;;;;;;;11.55;6.88;;;;;;;28.01;47.83;102053.88;5038526;28;20029;-83
2021/08/23 10:31:11;;;;;;;10.93;6.80;;;;;;;27.88;47.99;102047.53;5055478;28;20036;-83
2021/08/23 10:33:38;;;;;;;10.30;6.40;;;;;;;27.80;48.24;102056.88;5021627;28;20048;-83
2021/08/23 10:36:07;;;;;;;11.57;7.00;;;;;;;27.68;47.74;102042.03;5022147;28;20025;-84
2021/08/23 10:38:33;;;;;;;12.23;7.43;;;;;;;27.72;47.78;102054.31;5021749;28;20079;-83
2021/08/23 10:41:25;;;;;;;10.82;7.32;;;;;;;27.81;47.26;102064.06;5021906;28;20022;-82
2021/08/23 10:43:57;;;;;;;10.30;7.05;;;;;;;27.64;48.20;102054.50;5054185;28;20057;-82
2021/08/23 10:46:37;;;;;;;12.43;7.05;;;;;;;27.54;48.15;102051.34;5054205;28;20021;-82
2021/08/23 10:49:12;;;;;;;10.85;7.30;;;;;;;27.60;48.42;102072.53;5020562;28;20471;-84
2021/08/23 10:51:43;;;;;;;11.27;6.78;;;;;;;27.61;47.87;102063.22;5037994;28;20079;-84
2021/08/23 10:54:39;;;;;;;13.45;7.28;;;;;;;27.69;48.04;102068.53;5020839;28;20033;-84
2021/08/23 10:57:07;;;;;;;9.93;7.35;;;;;;;27.75;47.42;102068.50;5053760;28;20051;-82
2021/08/23 10:59:50;;;;;;;9.90;6.72;;;;;;;27.80;47.43;102073.41;5020916;28;20109;-83
2021/08/23 11:02:30;;;;;;;11.55;6.90;;;;;;;27.81;47.34;102079.72;5020473;28;20029;-81
2021/08/23 11:04:56;;;;;;;8.95;6.00;;;;;;;27.92;47.15;102081.88;5053446;28;20036;-82
2021/08/23 11:07:27;;;;;;;11.52;6.57;;;;;;;27.99;46.74;102080.81;5036178;28;20118;-82
2021/08/23 11:10:02;;;;;;;9.20;5.68;;;;;;;28.10;46.43;102080.19;5020630;28;20029;-83
2021/08/23 11:12:27;;;;;;;9.18;6.82;;;;;;;28.12;46.94;102072.53;5036396;28;20044;-83
2021/08/23 11:14:54;;;;;;;17.00;6.97;;;;;;;28.17;46.80;102071.88;5004414;28;20034;-82
2021/08/23 11:17:44;;;;;;;13.02;6.75;;;;;;;28.13;46.50;102079.75;5056063;28;20017;-82
2021/08/23 11:20:10;;;;;;;12.13;7.07;;;;;;;28.18;46.35;102079.97;5022407;28;20029;-82
2021/08/23 11:22:39;;;;;;;10.65;7.93;;;;;;;28.14;47.23;102070.41;5039418;28;20029;-82
2021/08/23 11:25:05;;;;;;;10.55;7.05;;;;;;;28.14;46.37;102070.41;5007025;28;20051;-83
2021/08/23 11:27:30;;;;;;;9.70;7.30;;;;;;;28.22;46.66;102072.13;5040830;28;20120;-82